createdAt,value
2022-08-20T00:01:05.791Z,80.29
2022-08-20T00:03:38.509Z,80.32
2022-08-20T00:06:05.682Z,80.08
2022-08-20T00:08:32.384Z,81.47
2022-08-20T00:11:00.152Z,79.89
2022-08-20T00:13:33.644Z,83.12
2022-08-20T00:16:00.757Z,85.64
2022-08-20T00:18:27.608Z,82.45
2022-08-20T00:20:55.583Z,84.30
2022-08-20T00:23:24.026Z,78.81
2022-08-20T00:25:52.627Z,79.26
2022-08-20T00:28:19.492Z,80.51
2022-08-20T00:30:46.981Z,79.98
2022-08-20T00:33:19.862Z,85.35
2022-08-20T00:35:50.292Z,83.97
2022-08-20T00:38:17.071Z,83.35
2022-08-20T00:40:47.999Z,81.38
2022-08-20T00:43:29.452Z,88.47
2022-08-20T00:45:57.451Z,81.51
2022-08-20T00:48:26.852Z,81.75
2022-08-20T00:50:58.958Z,81.00
2022-08-20T00:53:26.857Z,80.19
2022-08-20T00:55:53.530Z,85.20
2022-08-20T00:58:20.197Z,83.25
2022-08-20T01:00:49.623Z,81.29
2022-08-20T01:03:20.462Z,81.86
2022-08-20T01:05:49.887Z,80.56
2022-08-20T01:08:19.505Z,83.22
2022-08-20T01:10:49.113Z,80.84
2022-08-20T01:13:23.788Z,83.22
2022-08-20T01:15:55.142Z,82.58
2022-08-20T01:18:26.513Z,82.92
2022-08-20T01:20:58.497Z,82.21
2022-08-20T01:23:54.477Z,83.26
2022-08-20T01:26:25.636Z,84.76
2022-08-20T01:29:27.961Z,89.20
2022-08-20T01:32:01.153Z,88.32
2022-08-20T01:34:28.953Z,86.14
2022-08-20T01:36:57.966Z,84.83
2022-08-20T01:39:32.287Z,84.96
2022-08-20T01:42:17.820Z,84.71
2022-08-20T01:44:47.068Z,84.31
2022-08-20T01:47:21.537Z,81.28
2022-08-20T01:49:55.582Z,85.48
2022-08-20T01:52:33.445Z,87.88
2022-08-20T01:55:00.190Z,89.37
2022-08-20T01:57:27.432Z,83.93
2022-08-20T01:59:54.321Z,89.15
2022-08-20T02:02:21.692Z,89.82
2022-08-20T02:04:48.582Z,93.71
2022-08-20T02:07:22.629Z,89.58
2022-08-20T02:09:50.048Z,86.00
2022-08-20T02:12:17.677Z,87.49
2022-08-20T02:14:48.842Z,85.50
2022-08-20T02:17:15.819Z,85.87
2022-08-20T02:19:49.050Z,85.45
2022-08-20T02:22:26.097Z,87.85
2022-08-20T02:24:52.924Z,85.41
2022-08-20T02:27:23.438Z,85.03
2022-08-20T02:29:51.394Z,85.05
2022-08-20T02:32:24.817Z,86.00
2022-08-20T02:35:02.278Z,85.59
2022-08-20T02:37:29.505Z,83.96
2022-08-20T02:39:56.123Z,88.97
2022-08-20T02:42:22.879Z,87.09
2022-08-20T02:44:49.511Z,86.97
2022-08-20T02:47:17.194Z,84.48
2022-08-20T02:49:43.856Z,85.14
2022-08-20T02:52:11.044Z,86.73
2022-08-20T02:54:37.785Z,89.48
2022-08-20T02:57:05.199Z,87.40
2022-08-20T02:59:31.736Z,88.06
2022-08-20T03:01:59.699Z,89.09
2022-08-20T03:04:29.020Z,87.83
2022-08-20T03:06:55.880Z,86.01
2022-08-20T03:09:22.515Z,84.74
2022-08-20T03:11:49.342Z,85.35
2022-08-20T03:14:15.982Z,86.59
2022-08-20T03:16:43.155Z,88.19
2022-08-20T03:19:09.747Z,85.83
2022-08-20T03:21:36.800Z,96.89
2022-08-20T03:24:03.690Z,87.55
2022-08-20T03:26:30.271Z,88.89
2022-08-20T03:28:57.291Z,88.85
2022-08-20T03:31:23.902Z,84.91
2022-08-20T03:33:53.016Z,92.15
2022-08-20T03:36:22.074Z,87.77
2022-08-20T03:38:48.884Z,86.67
2022-08-20T03:41:15.501Z,84.95
2022-08-20T03:43:42.300Z,87.27
2022-08-20T03:46:22.853Z,85.47
2022-08-20T03:48:56.340Z,90.85
2022-08-20T03:51:30.525Z,86.01
2022-08-20T03:53:57.646Z,88.10
2022-08-20T03:56:24.272Z,87.40
2022-08-20T03:58:51.062Z,89.81
2022-08-20T04:01:45.481Z,87.86
2022-08-20T04:04:04.800Z,89.61
2022-08-20T04:06:31.699Z,87.31
2022-08-20T04:08:58.504Z,87.33
2022-08-20T04:11:25.021Z,87.88
2022-08-20T04:13:51.757Z,87.04
2022-08-20T04:16:19.431Z,90.89
2022-08-20T04:18:56.272Z,87.67
2022-08-20T04:21:32.795Z,88.29
2022-08-20T04:24:03.180Z,88.98
2022-08-20T04:26:30.659Z,89.83
2022-08-20T04:28:57.356Z,91.98
2022-08-20T04:31:33.452Z,89.29
2022-08-20T04:34:04.698Z,89.63
2022-08-20T04:36:31.409Z,90.42
2022-08-20T04:38:58.047Z,89.11
2022-08-20T04:41:24.634Z,92.13
2022-08-20T04:43:54.033Z,89.64
2022-08-20T04:46:23.301Z,91.80
2022-08-20T04:48:50.315Z,86.01
2022-08-20T04:51:18.179Z,91.70
2022-08-20T04:53:53.174Z,92.23
2022-08-20T04:56:26.076Z,90.39
2022-08-20T04:58:55.154Z,90.89
2022-08-20T05:01:23.821Z,86.74
2022-08-20T05:03:53.647Z,88.49
2022-08-20T05:06:22.026Z,90.19
2022-08-20T05:08:48.662Z,90.69
2022-08-20T05:11:34.052Z,93.21
2022-08-20T05:14:02.496Z,92.87
2022-08-20T05:16:29.635Z,90.53
2022-08-20T05:18:56.262Z,90.06
2022-08-20T05:21:22.962Z,89.14
2022-08-20T05:23:50.600Z,88.83
2022-08-20T05:26:20.117Z,87.75
2022-08-20T05:28:54.235Z,89.95
2022-08-20T05:31:31.494Z,93.98
2022-08-20T05:34:11.004Z,88.88
2022-08-20T05:36:40.744Z,89.92
2022-08-20T05:39:08.855Z,87.82
2022-08-20T05:41:35.542Z,91.57
2022-08-20T05:44:02.303Z,94.22
2022-08-20T05:46:31.518Z,89.39
2022-08-20T05:49:00.143Z,88.80
2022-08-20T05:51:28.192Z,87.38
2022-08-20T05:53:55.281Z,90.57
2022-08-20T05:56:27.076Z,86.85
2022-08-20T05:58:54.043Z,89.81
2022-08-20T06:01:20.951Z,87.69
2022-08-20T06:04:07.141Z,86.49
2022-08-20T06:06:45.813Z,87.85
2022-08-20T06:09:30.720Z,87.53
2022-08-20T06:12:01.043Z,89.99
2022-08-20T06:14:27.707Z,90.67
2022-08-20T06:16:57.654Z,87.96
2022-08-20T06:19:26.580Z,87.52
2022-08-20T06:21:53.827Z,87.59
2022-08-20T06:24:21.599Z,86.68
2022-08-20T06:26:48.299Z,86.95
2022-08-20T06:29:15.840Z,88.36
2022-08-20T06:31:42.432Z,86.72
2022-08-20T06:34:09.047Z,87.29
2022-08-20T06:36:36.651Z,86.37
2022-08-20T06:39:03.723Z,89.24
2022-08-20T06:41:35.955Z,86.62
2022-08-20T06:44:03.843Z,86.93
2022-08-20T06:46:32.279Z,86.81
2022-08-20T06:48:59.307Z,86.89
2022-08-20T06:51:25.830Z,87.34
2022-08-20T06:53:52.366Z,90.03
2022-08-20T06:56:18.906Z,90.79
2022-08-20T06:58:45.554Z,87.03
2022-08-20T07:01:13.659Z,86.47
2022-08-20T07:03:42.331Z,86.62
2022-08-20T07:09:41.312Z,87.12
2022-08-20T07:15:39.909Z,86.46
2022-08-20T07:18:37.767Z,85.87
2022-08-20T07:21:17.235Z,86.17
2022-08-20T07:24:17.370Z,85.15
2022-08-20T07:26:58.674Z,86.49
2022-08-20T07:30:03.068Z,86.66
2022-08-20T07:39:08.300Z,86.19
2022-08-20T07:42:15.812Z,84.75
2022-08-20T07:48:31.079Z,84.52
2022-08-20T07:51:30.853Z,83.46
2022-08-20T07:54:13.735Z,82.72
2022-08-20T07:57:18.889Z,82.66
2022-08-20T08:00:01.511Z,82.62
2022-08-20T08:03:06.137Z,83.29
2022-08-20T08:09:18.463Z,82.58
2022-08-20T08:12:12.595Z,82.94
2022-08-20T08:15:15.228Z,82.42
2022-08-20T08:18:18.434Z,82.25
2022-08-20T08:21:31.943Z,82.40
2022-08-20T08:24:57.270Z,79.61
2022-08-20T08:28:02.413Z,80.88
2022-08-20T08:30:58.044Z,79.83
2022-08-20T08:33:57.287Z,78.29
2022-08-20T08:37:23.164Z,77.44
2022-08-20T08:40:26.774Z,78.39
2022-08-20T08:46:26.061Z,76.39
2022-08-20T08:49:16.709Z,76.89
2022-08-20T08:58:34.888Z,74.33
2022-08-20T09:01:54.948Z,75.48
2022-08-20T09:04:52.811Z,75.64
2022-08-20T09:07:55.181Z,72.21
2022-08-20T09:10:43.675Z,75.51
2022-08-20T09:13:39.255Z,74.72
2022-08-20T09:16:52.822Z,76.39
2022-08-20T09:19:40.772Z,76.18
2022-08-20T09:22:23.475Z,72.79
2022-08-20T09:25:13.137Z,67.77
2022-08-20T09:28:25.584Z,68.43
2022-08-20T09:31:29.351Z,73.82
2022-08-20T09:36:53.774Z,67.60
2022-08-20T09:39:21.379Z,70.33
2022-08-20T09:41:47.958Z,70.81
2022-08-20T09:44:14.493Z,71.38
2022-08-20T09:46:41.098Z,71.35
2022-08-20T09:49:08.943Z,71.29
2022-08-20T09:51:38.498Z,71.69
2022-08-20T09:54:05.558Z,67.42
2022-08-20T09:56:34.697Z,71.24
2022-08-20T09:59:02.990Z,69.50
2022-08-20T10:01:29.778Z,69.75
2022-08-20T10:03:57.209Z,66.46
2022-08-20T10:06:23.754Z,69.88
2022-08-20T10:08:50.826Z,68.72
2022-08-20T10:11:18.417Z,69.89
2022-08-20T10:13:45.469Z,64.70
2022-08-20T10:16:13.499Z,68.92
2022-08-20T10:18:40.138Z,69.57
2022-08-20T10:21:11.568Z,65.77
2022-08-20T10:23:38.336Z,65.22
2022-08-20T10:26:05.067Z,59.41
2022-08-20T10:28:31.657Z,65.13
2022-08-20T10:30:58.290Z,65.24
2022-08-20T10:33:24.812Z,64.17
2022-08-20T10:35:51.377Z,58.62
2022-08-20T10:38:22.422Z,64.37
2022-08-20T10:40:52.503Z,64.09
2022-08-20T10:43:19.398Z,63.38
2022-08-20T10:45:45.997Z,57.46
2022-08-20T10:48:12.530Z,61.77
2022-08-20T10:50:39.224Z,61.96
2022-08-20T10:53:05.749Z,63.57
2022-08-20T10:55:54.843Z,57.58
2022-08-20T10:58:23.817Z,61.07
2022-08-20T11:00:51.354Z,57.50
2022-08-20T11:03:18.606Z,61.32
2022-08-20T11:05:45.490Z,62.53
2022-08-20T11:08:12.125Z,54.39
2022-08-20T11:10:41.234Z,60.06
2022-08-20T11:13:08.298Z,61.60
2022-08-20T11:15:41.326Z,52.27
2022-08-20T11:18:13.692Z,56.92
2022-08-20T11:20:42.201Z,60.05
2022-08-20T11:23:08.866Z,58.96
2022-08-20T11:25:35.755Z,59.94
2022-08-20T11:28:03.527Z,58.47
2022-08-20T11:30:32.578Z,49.84
2022-08-20T11:33:00.373Z,58.53
2022-08-20T11:35:49.173Z,59.84
2022-08-20T11:38:17.528Z,58.91
2022-08-20T11:40:44.069Z,55.27
2022-08-20T11:43:16.259Z,60.17
2022-08-20T11:45:55.042Z,57.68
2022-08-20T11:48:22.317Z,56.21
2022-08-20T11:50:49.798Z,55.90
2022-08-20T11:53:16.657Z,50.09
2022-08-20T11:55:44.018Z,56.42
2022-08-20T11:58:11.307Z,57.58
2022-08-20T12:00:38.171Z,55.63
2022-08-20T12:03:09.363Z,53.69
2022-08-20T12:05:39.362Z,55.68
2022-08-20T12:08:06.707Z,53.41
2022-08-20T12:10:33.712Z,50.48
2022-08-20T12:13:00.372Z,48.60
2022-08-20T12:15:29.491Z,58.98
2022-08-20T12:17:56.378Z,58.59
2022-08-20T12:20:25.387Z,57.58
2022-08-20T12:22:53.925Z,59.82
2022-08-20T12:25:21.662Z,60.51
2022-08-20T12:27:48.266Z,54.14
2022-08-20T12:30:19.947Z,57.96
2022-08-20T12:32:48.087Z,56.82
2022-08-20T12:35:18.022Z,57.55
2022-08-20T12:37:45.887Z,58.11
2022-08-20T12:40:17.108Z,57.75
2022-08-20T12:42:51.118Z,57.06
2022-08-20T12:45:18.293Z,57.65
2022-08-20T12:47:47.702Z,46.72
2022-08-20T12:50:21.601Z,55.53
2022-08-20T12:52:49.143Z,55.72
2022-08-20T12:55:19.256Z,53.28
2022-08-20T12:57:51.608Z,53.36
2022-08-20T13:00:31.072Z,50.78
2022-08-20T13:03:00.901Z,56.88
2022-08-20T13:05:28.997Z,53.65
2022-08-20T13:07:56.285Z,55.87
2022-08-20T13:10:29.815Z,49.77
2022-08-20T13:12:56.684Z,56.35
2022-08-20T13:15:24.419Z,52.98
2022-08-20T13:17:54.891Z,54.41
2022-08-20T13:20:25.627Z,54.52
2022-08-20T13:22:58.129Z,52.03
2022-08-20T13:25:25.608Z,51.73
2022-08-20T13:27:58.727Z,49.38
2022-08-20T13:30:25.769Z,55.42
2022-08-20T13:32:52.607Z,52.56
2022-08-20T13:35:19.816Z,54.96
2022-08-20T13:37:48.670Z,53.01
2022-08-20T13:40:16.184Z,53.16
2022-08-20T13:42:42.999Z,53.39
2022-08-20T13:45:10.786Z,50.16
2022-08-20T13:47:38.981Z,53.86
2022-08-20T13:50:13.264Z,53.77
2022-08-20T13:52:42.758Z,49.49
2022-08-20T13:55:11.585Z,51.93
2022-08-20T13:57:39.203Z,53.42
2022-08-20T14:00:11.080Z,47.68
2022-08-20T14:02:38.061Z,52.87
2022-08-20T14:05:05.006Z,52.97
2022-08-20T14:07:32.719Z,49.69
2022-08-20T14:10:07.642Z,46.44
2022-08-20T14:12:34.294Z,50.02
2022-08-20T14:15:00.871Z,46.88
2022-08-20T14:17:30.213Z,49.24
2022-08-20T14:20:10.640Z,45.54
2022-08-20T14:22:37.332Z,51.96
2022-08-20T14:25:05.950Z,51.04
2022-08-20T14:27:34.012Z,50.70
2022-08-20T14:30:01.907Z,52.33
2022-08-20T14:32:28.581Z,52.57
2022-08-20T14:34:58.191Z,51.08
2022-08-20T14:37:26.252Z,51.22
2022-08-20T14:39:56.893Z,47.72
2022-08-20T14:42:24.253Z,52.30
2022-08-20T14:44:51.334Z,51.86
2022-08-20T14:47:30.266Z,50.56
2022-08-20T14:50:02.198Z,49.04
2022-08-20T14:52:29.452Z,43.70
2022-08-20T14:54:56.170Z,50.98
2022-08-20T14:57:23.516Z,52.34
2022-08-20T14:59:53.294Z,50.53
2022-08-20T15:02:20.321Z,51.46
2022-08-20T15:04:54.419Z,47.83
2022-08-20T15:07:26.886Z,50.62
2022-08-20T15:09:54.450Z,52.15
2022-08-20T15:12:21.781Z,51.64
2022-08-20T15:14:49.103Z,50.97
2022-08-20T15:17:24.918Z,44.01
2022-08-20T15:19:52.354Z,50.14
2022-08-20T15:22:20.216Z,50.29
2022-08-20T15:24:47.838Z,50.80
2022-08-20T15:27:22.735Z,48.87
2022-08-20T15:29:51.085Z,45.92
2022-08-20T15:32:18.563Z,47.28
2022-08-20T15:34:45.603Z,50.54
2022-08-20T15:37:18.995Z,50.61
2022-08-20T15:39:45.782Z,47.97
2022-08-20T15:42:15.444Z,47.52
2022-08-20T15:44:42.686Z,48.54
2022-08-20T15:47:28.102Z,45.86
2022-08-20T15:50:18.687Z,49.35
2022-08-20T15:52:45.440Z,51.86
2022-08-20T15:55:14.912Z,50.98
2022-08-20T15:57:58.565Z,50.55
2022-08-20T16:00:34.468Z,49.45
2022-08-20T16:03:13.278Z,50.78
2022-08-20T16:05:52.083Z,49.59
2022-08-20T16:08:46.248Z,53.37
2022-08-20T16:11:18.267Z,50.94
2022-08-20T16:13:50.677Z,47.82
2022-08-20T16:16:40.046Z,49.55
2022-08-20T16:19:16.128Z,50.66
2022-08-20T16:21:44.689Z,52.96
2022-08-20T16:24:13.949Z,51.36
2022-08-20T16:26:53.298Z,49.25
2022-08-20T16:29:38.297Z,47.57
2022-08-20T16:32:10.440Z,50.32
2022-08-20T16:34:58.548Z,46.80
2022-08-20T16:37:48.098Z,47.55
2022-08-20T16:40:26.575Z,51.18
2022-08-20T16:42:57.016Z,51.23
2022-08-20T16:45:50.818Z,50.62
2022-08-20T16:48:18.560Z,51.00
2022-08-20T16:50:59.032Z,50.62
2022-08-20T16:53:26.363Z,51.07
2022-08-20T16:55:54.629Z,50.67
2022-08-20T16:58:21.244Z,50.08
2022-08-20T17:00:48.171Z,50.55
2022-08-20T17:03:31.359Z,49.82
2022-08-20T17:06:46.856Z,45.24
2022-08-20T17:09:14.754Z,45.62
2022-08-20T17:12:07.042Z,50.89
2022-08-20T17:14:50.369Z,50.17
2022-08-20T17:17:39.046Z,49.72
2022-08-20T17:20:19.957Z,45.09
2022-08-20T17:23:09.454Z,48.85
2022-08-20T17:25:38.415Z,50.98
2022-08-20T17:28:19.792Z,48.17
2022-08-20T17:30:47.543Z,50.87
2022-08-20T17:33:33.064Z,49.56
2022-08-20T17:36:11.258Z,50.47
2022-08-20T17:38:46.522Z,50.85
2022-08-20T17:41:22.297Z,50.89
2022-08-20T17:43:58.266Z,49.47
2022-08-20T17:46:28.393Z,48.60
2022-08-20T17:48:57.627Z,50.81
2022-08-20T17:51:36.553Z,48.98
2022-08-20T17:54:20.278Z,48.91
2022-08-20T17:56:46.860Z,50.83
2022-08-20T18:00:00.664Z,49.53
2022-08-20T18:02:29.349Z,50.60
2022-08-20T18:04:56.060Z,50.39
2022-08-20T18:07:45.050Z,49.72
2022-08-20T18:10:20.783Z,50.92
2022-08-20T18:13:24.880Z,49.20
2022-08-20T18:15:56.473Z,51.47
2022-08-20T18:18:56.599Z,50.95
2022-08-20T18:22:01.455Z,49.79
2022-08-20T18:24:38.417Z,51.51
2022-08-20T18:27:11.608Z,52.12
2022-08-20T18:29:42.788Z,51.97
2022-08-20T18:32:39.268Z,51.91
2022-08-20T18:35:12.209Z,52.17
2022-08-20T18:37:40.008Z,52.38
2022-08-20T18:40:29.842Z,52.34
2022-08-20T18:43:10.673Z,52.67
2022-08-20T18:45:37.431Z,52.96
2022-08-20T18:48:05.755Z,53.11
2022-08-20T18:50:38.347Z,52.90
2022-08-20T18:53:23.676Z,52.42
2022-08-20T18:56:13.525Z,52.77
2022-08-20T18:59:15.534Z,52.88
2022-08-20T19:01:43.625Z,52.97
2022-08-20T19:04:32.006Z,53.32
2022-08-20T19:07:04.769Z,53.69
2022-08-20T19:10:09.459Z,54.53
2022-08-20T19:13:04.328Z,54.69
2022-08-20T19:15:33.545Z,54.49
2022-08-20T19:18:10.420Z,54.69
2022-08-20T19:20:51.260Z,54.62
2022-08-20T19:23:20.921Z,54.88
2022-08-20T19:26:06.545Z,55.21
2022-08-20T19:28:55.314Z,55.31
2022-08-20T19:31:28.351Z,55.67
2022-08-20T19:34:20.121Z,56.35
2022-08-20T19:37:35.589Z,56.28
2022-08-20T19:39:59.621Z,55.92
2022-08-20T19:42:32.266Z,56.53
2022-08-20T19:45:03.179Z,56.79
2022-08-20T19:47:52.603Z,56.33
2022-08-20T19:50:31.792Z,57.06
2022-08-20T19:53:17.196Z,56.63
2022-08-20T19:55:44.518Z,57.51
2022-08-20T19:58:26.389Z,58.78
2022-08-20T20:00:55.303Z,57.01
2022-08-20T20:03:32.126Z,62.08
2022-08-20T20:06:02.817Z,60.04
2022-08-20T20:08:40.175Z,60.67
2022-08-20T20:11:07.448Z,58.18
2022-08-20T20:13:37.657Z,58.93
2022-08-20T20:16:06.979Z,58.88
2022-08-20T20:18:41.791Z,58.98
2022-08-20T20:21:16.515Z,58.27
2022-08-20T20:23:56.801Z,58.98
2022-08-20T20:26:24.537Z,58.35
2022-08-20T20:28:59.978Z,59.34
2022-08-20T20:31:32.644Z,59.49
2022-08-20T20:34:07.243Z,59.39
2022-08-20T20:36:43.549Z,59.95
2022-08-20T20:39:30.330Z,65.13
2022-08-20T20:42:00.245Z,59.67
2022-08-20T20:44:47.098Z,63.51
2022-08-20T20:47:18.406Z,62.61
2022-08-20T20:49:52.425Z,59.98
2022-08-20T20:52:29.528Z,59.18
2022-08-20T20:55:10.986Z,61.42
2022-08-20T20:57:39.118Z,59.77
2022-08-20T21:00:13.781Z,61.53
2022-08-20T21:02:40.950Z,59.62
2022-08-20T21:05:08.189Z,59.38
2022-08-20T21:07:34.903Z,60.57
2022-08-20T21:10:01.627Z,60.57
2022-08-20T21:12:28.195Z,60.06
2022-08-20T21:14:54.835Z,61.11
2022-08-20T21:17:23.015Z,60.94
2022-08-20T21:19:51.195Z,60.58
2022-08-20T21:22:19.658Z,62.03
2022-08-20T21:24:51.252Z,61.48
2022-08-20T21:27:24.504Z,63.01
2022-08-20T21:29:51.687Z,61.90
2022-08-20T21:32:19.379Z,61.00
2022-08-20T21:34:46.087Z,60.67
2022-08-20T21:37:13.410Z,61.41
2022-08-20T21:39:40.377Z,62.17
2022-08-20T21:42:18.566Z,61.88
2022-08-20T21:44:55.724Z,62.41
2022-08-20T21:47:22.398Z,61.49
2022-08-20T21:49:49.002Z,62.78
2022-08-20T21:52:15.610Z,62.85
2022-08-20T21:54:42.218Z,62.22
2022-08-20T21:57:17.083Z,63.43
2022-08-20T21:59:43.715Z,62.67
2022-08-20T22:02:10.327Z,63.68
2022-08-20T22:04:37.384Z,64.21
2022-08-20T22:07:04.589Z,62.10
2022-08-20T22:09:32.966Z,62.22
2022-08-20T22:12:02.710Z,63.89
2022-08-20T22:14:30.256Z,62.88
2022-08-20T22:16:57.961Z,62.89
2022-08-20T22:19:24.697Z,61.83
2022-08-20T22:21:54.662Z,63.99
2022-08-20T22:24:29.523Z,65.75
2022-08-20T22:26:56.161Z,62.58
2022-08-20T22:29:22.932Z,63.91
2022-08-20T22:31:49.555Z,64.35
2022-08-20T22:34:19.235Z,67.81
2022-08-20T22:36:46.701Z,64.11
2022-08-20T22:39:14.293Z,63.47
2022-08-20T22:41:42.053Z,64.47
2022-08-20T22:44:08.669Z,64.22
2022-08-20T22:46:42.462Z,63.41
2022-08-20T22:49:13.319Z,62.67
2022-08-20T22:51:42.107Z,67.40
2022-08-20T22:54:12.868Z,64.94
2022-08-20T22:56:39.442Z,64.47
2022-08-20T22:59:07.862Z,65.34
2022-08-20T23:01:34.521Z,67.90
2022-08-20T23:04:07.316Z,65.94
2022-08-20T23:06:34.078Z,65.40
2022-08-20T23:09:00.668Z,69.32
2022-08-20T23:11:27.293Z,64.96
2022-08-20T23:13:53.933Z,66.99
2022-08-20T23:16:20.585Z,65.22
2022-08-20T23:18:47.359Z,68.36
2022-08-20T23:21:14.899Z,66.79
2022-08-20T23:23:41.887Z,70.89
2022-08-20T23:26:08.515Z,67.98
2022-08-20T23:28:35.206Z,67.55
2022-08-20T23:31:01.932Z,66.19
2022-08-20T23:33:28.487Z,68.30
2022-08-20T23:35:55.533Z,69.93
2022-08-20T23:38:22.081Z,70.21
2022-08-20T23:40:48.717Z,69.16
2022-08-20T23:43:15.308Z,67.75
2022-08-20T23:45:42.278Z,70.52
2022-08-20T23:48:09.261Z,69.82
2022-08-20T23:50:36.466Z,68.77
2022-08-20T23:53:04.456Z,68.75
2022-08-20T23:55:31.247Z,67.86
2022-08-20T23:57:57.886Z,69.00
